createdAt,value
2022-12-12T00:00:45.967Z,86.54
2022-12-12T00:03:15.925Z,86.78
2022-12-12T00:05:45.801Z,86.39
2022-12-12T00:08:15.579Z,86.69
2022-12-12T00:10:45.518Z,86.63
2022-12-12T00:13:15.351Z,87.06
2022-12-12T00:15:47.760Z,86.18
2022-12-12T00:18:17.578Z,85.37
2022-12-12T00:20:47.323Z,85.30
2022-12-12T00:23:17.050Z,85.68
2022-12-12T00:25:46.839Z,85.90
2022-12-12T00:28:16.596Z,84.69
2022-12-12T00:30:48.997Z,84.40
2022-12-12T00:33:18.726Z,84.56
2022-12-12T00:35:51.902Z,85.06
2022-12-12T00:38:22.360Z,85.67
2022-12-12T00:40:53.221Z,84.99
2022-12-12T00:43:22.954Z,84.47
2022-12-12T00:45:55.764Z,83.79
2022-12-12T00:48:25.506Z,83.56
2022-12-12T00:50:55.365Z,83.62
2022-12-12T00:53:25.644Z,83.04
2022-12-12T00:55:59.490Z,83.17
2022-12-12T00:58:29.666Z,83.24
2022-12-12T01:01:06.565Z,83.00
2022-12-12T01:03:36.873Z,83.47
2022-12-12T01:06:07.468Z,83.06
2022-12-12T01:08:37.486Z,82.80
2022-12-12T01:11:07.692Z,83.00
2022-12-12T01:13:37.797Z,82.96
2022-12-12T01:16:10.853Z,82.82
2022-12-12T01:18:42.007Z,82.18
2022-12-12T01:21:12.393Z,81.87
2022-12-12T01:23:42.720Z,81.62
2022-12-12T01:26:15.289Z,81.47
2022-12-12T01:28:45.972Z,81.61
2022-12-12T01:31:18.541Z,80.95
2022-12-12T01:33:48.555Z,81.08
2022-12-12T01:36:20.829Z,81.51
2022-12-12T01:38:52.896Z,81.48
2022-12-12T01:41:24.136Z,80.91
2022-12-12T01:43:54.039Z,80.98
2022-12-12T01:46:47.776Z,80.67
2022-12-12T01:49:25.544Z,81.78
2022-12-12T01:51:59.519Z,82.18
2022-12-12T01:54:33.640Z,82.55
2022-12-12T01:57:07.888Z,82.47
2022-12-12T01:59:39.525Z,83.06
2022-12-12T02:02:12.721Z,82.09
2022-12-12T02:04:43.670Z,81.24
2022-12-12T02:07:13.482Z,81.22
2022-12-12T02:09:43.756Z,81.36
2022-12-12T02:12:15.805Z,81.63
2022-12-12T02:14:51.811Z,81.31
2022-12-12T02:17:37.954Z,80.76
2022-12-12T02:20:34.028Z,80.91
2022-12-12T02:23:40.772Z,82.04
2022-12-12T02:26:41.242Z,82.44
2022-12-12T02:29:38.996Z,81.58
2022-12-12T02:32:17.332Z,81.37
2022-12-12T02:34:53.004Z,80.85
2022-12-12T02:37:28.494Z,80.69
2022-12-12T02:40:07.216Z,80.60
2022-12-12T02:42:44.757Z,80.98
2022-12-12T02:45:19.621Z,81.25
2022-12-12T02:47:57.152Z,80.86
2022-12-12T02:50:30.834Z,81.08
2022-12-12T02:53:02.777Z,80.56
2022-12-12T02:55:36.270Z,80.36
2022-12-12T02:58:07.820Z,79.78
2022-12-12T03:00:46.454Z,79.76
2022-12-12T03:03:50.044Z,79.87
2022-12-12T03:06:45.841Z,80.95
2022-12-12T03:09:23.714Z,81.45
2022-12-12T03:12:01.969Z,81.34
2022-12-12T03:14:44.873Z,80.74
2022-12-12T03:17:23.410Z,80.43
2022-12-12T03:20:02.545Z,80.15
2022-12-12T03:22:39.565Z,80.16
2022-12-12T03:25:15.408Z,79.90
2022-12-12T03:27:52.218Z,80.41
2022-12-12T03:30:23.781Z,80.73
2022-12-12T03:33:01.389Z,79.67
2022-12-12T03:35:39.397Z,79.24
2022-12-12T03:38:15.340Z,79.85
2022-12-12T03:40:50.477Z,79.88
2022-12-12T03:43:24.404Z,80.08
2022-12-12T03:46:00.322Z,79.69
2022-12-12T03:48:32.309Z,79.34
2022-12-12T03:51:07.850Z,79.40
2022-12-12T03:53:43.416Z,79.49
2022-12-12T03:56:20.333Z,78.92
2022-12-12T03:58:54.390Z,79.15
2022-12-12T04:01:30.574Z,79.11
2022-12-12T04:04:05.866Z,78.96
2022-12-12T04:06:41.613Z,79.28
2022-12-12T04:09:27.673Z,78.72
2022-12-12T04:12:18.488Z,78.73
2022-12-12T04:15:20.748Z,77.76
2022-12-12T04:18:01.373Z,78.79
2022-12-12T04:20:49.224Z,79.18
2022-12-12T04:23:38.292Z,78.89
2022-12-12T04:26:28.996Z,79.20
2022-12-12T04:29:09.545Z,79.17
2022-12-12T04:31:43.570Z,78.29
2022-12-12T04:34:16.979Z,78.29
2022-12-12T04:36:50.458Z,78.83
2022-12-12T04:39:24.247Z,79.11
2022-12-12T04:41:57.538Z,79.12
2022-12-12T04:44:30.437Z,79.11
2022-12-12T04:47:02.427Z,79.07
2022-12-12T04:49:36.126Z,79.20
2022-12-12T04:52:11.009Z,78.50
2022-12-12T04:54:48.867Z,78.29
2022-12-12T04:57:23.195Z,78.66
2022-12-12T04:59:53.283Z,78.91
2022-12-12T05:02:32.902Z,78.81
2022-12-12T05:05:07.165Z,78.24
2022-12-12T05:07:40.699Z,78.16
2022-12-12T05:10:15.974Z,77.96
2022-12-12T05:12:48.013Z,78.39
2022-12-12T05:15:19.250Z,78.44
2022-12-12T05:17:52.248Z,78.76
2022-12-12T05:20:22.061Z,80.35
2022-12-12T05:22:51.843Z,80.55
2022-12-12T05:25:24.271Z,80.87
2022-12-12T05:27:54.060Z,81.42
2022-12-12T05:30:24.765Z,81.03
2022-12-12T05:32:54.966Z,81.10
2022-12-12T05:35:24.877Z,81.59
2022-12-12T05:37:54.669Z,81.21
2022-12-12T05:40:27.029Z,81.70
2022-12-12T05:42:56.864Z,81.92
2022-12-12T05:45:26.882Z,81.63
2022-12-12T05:47:56.651Z,82.14
2022-12-12T05:50:26.424Z,81.95
2022-12-12T05:52:56.185Z,82.11
2022-12-12T05:55:28.499Z,81.91
2022-12-12T05:57:58.251Z,82.15
2022-12-12T06:00:28.010Z,82.03
2022-12-12T06:02:57.832Z,81.90
2022-12-12T06:05:27.617Z,82.33
2022-12-12T06:07:57.414Z,81.83
2022-12-12T06:10:30.836Z,81.17
2022-12-12T06:13:00.602Z,80.83
2022-12-12T06:15:30.498Z,80.21
2022-12-12T06:18:01.086Z,79.44
2022-12-12T06:20:32.616Z,78.94
2022-12-12T06:23:03.538Z,78.58
2022-12-12T06:25:36.281Z,78.35
2022-12-12T06:28:06.112Z,78.04
2022-12-12T06:30:36.952Z,78.46
2022-12-12T06:33:07.054Z,78.41
2022-12-12T06:35:36.794Z,78.46
2022-12-12T06:38:06.640Z,78.28
2022-12-12T06:40:42.102Z,78.17
2022-12-12T06:43:11.900Z,78.47
2022-12-12T06:45:41.726Z,78.56
2022-12-12T06:48:12.543Z,78.64
2022-12-12T06:50:43.014Z,78.56
2022-12-12T06:53:13.787Z,78.71
2022-12-12T06:55:48.951Z,79.51
2022-12-12T06:58:18.871Z,79.81
2022-12-12T07:00:53.692Z,79.89
2022-12-12T07:03:23.550Z,79.86
2022-12-12T07:05:53.447Z,80.00
2022-12-12T07:08:23.286Z,80.34
2022-12-12T07:10:55.730Z,80.17
2022-12-12T07:13:25.976Z,80.57
2022-12-12T07:15:58.966Z,80.50
2022-12-12T07:18:29.058Z,80.50
2022-12-12T07:20:58.870Z,79.39
2022-12-12T07:23:28.790Z,78.85
2022-12-12T07:26:01.281Z,78.54
2022-12-12T07:28:31.117Z,77.88
2022-12-12T07:31:01.389Z,77.79
2022-12-12T07:33:42.660Z,77.49
2022-12-12T07:36:13.586Z,77.80
2022-12-12T07:38:43.887Z,78.15
2022-12-12T07:41:18.887Z,77.95
2022-12-12T07:43:53.080Z,77.77
2022-12-12T07:46:25.943Z,77.88
2022-12-12T07:48:56.801Z,77.67
2022-12-12T07:51:26.653Z,77.59
2022-12-12T07:53:57.448Z,77.60
2022-12-12T07:56:29.923Z,77.96
2022-12-12T07:58:59.799Z,78.34
2022-12-12T08:01:30.872Z,78.63
2022-12-12T08:04:01.988Z,79.00
2022-12-12T08:06:32.905Z,79.90
2022-12-12T08:09:02.678Z,80.62
2022-12-12T08:11:35.077Z,80.23
2022-12-12T08:14:11.069Z,80.14
2022-12-12T08:16:42.724Z,80.28
2022-12-12T08:19:12.597Z,80.27
2022-12-12T08:21:42.381Z,80.04
2022-12-12T08:24:15.420Z,79.74
2022-12-12T08:26:48.157Z,80.42
2022-12-12T08:29:17.971Z,80.92
2022-12-12T08:31:48.914Z,80.99
2022-12-12T08:34:19.769Z,80.86
2022-12-12T08:36:49.665Z,80.72
2022-12-12T08:39:19.527Z,81.36
2022-12-12T08:41:52.182Z,82.01
2022-12-12T08:44:23.301Z,82.46
2022-12-12T08:46:53.192Z,82.32
2022-12-12T08:49:23.048Z,81.92
2022-12-12T08:51:52.908Z,82.34
2022-12-12T08:54:22.843Z,82.37
2022-12-12T08:56:55.273Z,81.89
2022-12-12T08:59:25.387Z,82.37
2022-12-12T09:01:55.324Z,81.56
2022-12-12T09:04:25.618Z,81.71
2022-12-12T09:06:56.142Z,81.93
2022-12-12T09:09:25.920Z,82.23
2022-12-12T09:11:58.382Z,82.02
2022-12-12T09:14:28.246Z,82.03
2022-12-12T09:16:58.033Z,82.45
2022-12-12T09:19:28.015Z,82.73
2022-12-12T09:21:57.863Z,82.39
2022-12-12T09:24:27.862Z,82.54
2022-12-12T09:27:00.356Z,83.09
2022-12-12T09:29:30.664Z,82.17
2022-12-12T09:32:06.331Z,82.29
2022-12-12T09:34:36.194Z,82.17
2022-12-12T09:37:06.082Z,82.26
2022-12-12T09:39:35.883Z,82.08
2022-12-12T09:42:20.330Z,81.94
2022-12-12T09:44:51.266Z,82.38
2022-12-12T09:47:27.529Z,82.54
2022-12-12T09:49:59.313Z,82.87
2022-12-12T09:52:35.689Z,82.60
2022-12-12T09:55:24.109Z,83.00
2022-12-12T09:58:02.444Z,83.19
2022-12-12T10:00:35.805Z,83.38
2022-12-12T10:03:18.363Z,83.22
2022-12-12T10:06:13.851Z,83.25
2022-12-12T10:08:56.060Z,83.29
2022-12-12T10:11:44.457Z,83.05
2022-12-12T10:14:18.812Z,83.79
2022-12-12T10:16:52.424Z,83.99
2022-12-12T10:19:31.854Z,83.98
2022-12-12T10:22:07.328Z,84.43
2022-12-12T10:24:42.865Z,84.39
2022-12-12T10:27:14.801Z,84.51
2022-12-12T10:29:50.673Z,84.27
2022-12-12T10:32:34.038Z,84.52
2022-12-12T10:35:24.542Z,84.45
2022-12-12T10:38:08.677Z,84.65
2022-12-12T10:40:49.810Z,84.64
2022-12-12T10:43:25.525Z,84.69
2022-12-12T10:46:19.199Z,84.50
2022-12-12T10:48:51.329Z,84.78
2022-12-12T10:51:25.696Z,84.92
2022-12-12T10:53:55.610Z,84.45
2022-12-12T10:56:29.018Z,84.60
2022-12-12T10:59:01.460Z,84.72
2022-12-12T11:02:08.390Z,84.88
2022-12-12T11:04:30.046Z,84.48
2022-12-12T11:07:00.248Z,84.53
2022-12-12T11:09:31.519Z,84.53
2022-12-12T11:12:03.486Z,84.66
2022-12-12T11:14:37.466Z,84.77
2022-12-12T11:17:22.946Z,84.73
2022-12-12T11:19:55.632Z,84.91
2022-12-12T11:22:25.714Z,84.88
2022-12-12T11:24:57.354Z,84.82
2022-12-12T11:27:31.380Z,84.87
2022-12-12T11:30:03.759Z,84.51
2022-12-12T11:32:44.013Z,84.38
2022-12-12T11:35:27.158Z,84.46
2022-12-12T11:38:02.263Z,84.55
2022-12-12T11:40:34.840Z,84.34
2022-12-12T11:43:19.440Z,84.26
2022-12-12T11:46:05.001Z,84.20
2022-12-12T11:48:44.616Z,84.48
2022-12-12T11:51:14.605Z,84.13
2022-12-12T11:53:48.266Z,84.08
2022-12-12T11:56:33.201Z,83.35
2022-12-12T11:59:21.368Z,82.92
2022-12-12T12:02:02.668Z,83.21
2022-12-12T12:04:52.744Z,83.14
2022-12-12T12:07:42.046Z,82.27
2022-12-12T12:10:23.933Z,81.92
2022-12-12T12:13:02.529Z,81.56
2022-12-12T12:15:42.635Z,81.58
2022-12-12T12:18:36.996Z,81.58
2022-12-12T12:21:29.383Z,81.71
2022-12-12T12:24:11.481Z,81.58
2022-12-12T12:26:50.477Z,81.40
2022-12-12T12:29:35.463Z,80.08
2022-12-12T12:32:14.882Z,80.05
2022-12-12T12:34:54.980Z,80.27
2022-12-12T12:37:41.917Z,79.97
2022-12-12T12:40:36.401Z,79.92
2022-12-12T12:43:33.962Z,79.70
2022-12-12T12:46:13.765Z,79.74
2022-12-12T12:48:47.320Z,79.47
2022-12-12T12:51:22.093Z,79.80
2022-12-12T12:54:00.956Z,79.78
2022-12-12T12:56:33.627Z,79.57
2022-12-12T12:59:07.484Z,78.87
2022-12-12T13:01:42.951Z,79.33
2022-12-12T13:04:19.688Z,79.73
2022-12-12T13:06:54.328Z,80.04
2022-12-12T13:09:41.118Z,79.51
2022-12-12T13:12:18.084Z,80.03
2022-12-12T13:14:53.809Z,79.89
2022-12-12T13:17:28.057Z,79.54
2022-12-12T13:20:00.382Z,79.39
2022-12-12T13:22:49.852Z,78.95
2022-12-12T13:25:32.447Z,78.84
2022-12-12T13:28:06.082Z,79.10
2022-12-12T13:30:51.162Z,79.12
2022-12-12T13:33:36.498Z,79.25
2022-12-12T13:36:15.382Z,79.38
2022-12-12T13:38:50.681Z,79.56
2022-12-12T13:41:23.193Z,79.65
2022-12-12T13:43:59.247Z,79.61
2022-12-12T13:46:52.678Z,79.67
2022-12-12T13:49:37.301Z,79.81
2022-12-12T13:52:26.511Z,79.73
2022-12-12T13:55:13.113Z,80.38
2022-12-12T13:58:19.569Z,80.28
2022-12-12T14:00:50.216Z,81.05
2022-12-12T14:03:32.951Z,80.72
2022-12-12T14:06:13.567Z,81.03
2022-12-12T14:08:52.417Z,81.39
2022-12-12T14:11:32.398Z,81.41
2022-12-12T14:14:23.206Z,81.39
2022-12-12T14:16:57.883Z,81.56
2022-12-12T14:19:33.101Z,81.87
2022-12-12T14:22:04.081Z,82.31
2022-12-12T14:25:05.386Z,82.07
2022-12-12T14:28:13.736Z,82.06
2022-12-12T14:30:51.800Z,82.37
2022-12-12T14:33:46.258Z,82.13
2022-12-12T14:36:39.235Z,82.19
2022-12-12T14:39:20.564Z,82.27
2022-12-12T14:41:51.225Z,82.96
2022-12-12T14:44:36.656Z,82.96
2022-12-12T14:47:19.019Z,83.28
2022-12-12T14:49:48.806Z,83.43
2022-12-12T14:52:23.710Z,83.22
2022-12-12T14:54:54.665Z,83.26
2022-12-12T14:57:27.401Z,83.08
2022-12-12T14:59:57.363Z,83.25
2022-12-12T15:02:38.988Z,82.67
2022-12-12T15:05:10.843Z,82.61
2022-12-12T15:07:41.963Z,82.67
2022-12-12T15:10:25.802Z,82.92
2022-12-12T15:12:55.573Z,83.19
2022-12-12T15:15:28.868Z,83.36
2022-12-12T15:18:04.094Z,83.32
2022-12-12T15:20:35.154Z,83.16
2022-12-12T15:23:07.164Z,83.07
2022-12-12T15:25:46.019Z,83.32
2022-12-12T15:28:18.416Z,83.21
2022-12-12T15:30:52.424Z,82.91
2022-12-12T15:33:26.333Z,83.17
2022-12-12T15:36:02.132Z,83.27
2022-12-12T15:38:32.683Z,82.96
2022-12-12T15:41:12.772Z,82.79
2022-12-12T15:43:45.044Z,82.73
2022-12-12T15:46:17.946Z,82.85
2022-12-12T15:48:52.233Z,82.70
2022-12-12T15:51:25.374Z,82.69
2022-12-12T15:53:56.792Z,82.63
2022-12-12T15:56:30.594Z,82.39
2022-12-12T15:59:17.945Z,82.11
2022-12-12T16:01:48.765Z,82.58
2022-12-12T16:04:28.613Z,82.19
2022-12-12T16:07:17.255Z,81.63
2022-12-12T16:10:01.030Z,81.72
2022-12-12T16:12:58.620Z,81.83
2022-12-12T16:15:46.163Z,82.07
2022-12-12T16:18:23.780Z,82.57
2022-12-12T16:20:58.277Z,82.14
2022-12-12T16:23:33.471Z,82.05
2022-12-12T16:26:03.296Z,82.03
2022-12-12T16:28:34.089Z,82.01
2022-12-12T16:31:07.592Z,82.02
2022-12-12T16:33:38.774Z,81.73
2022-12-12T16:36:15.007Z,81.72
2022-12-12T16:38:46.142Z,81.84
2022-12-12T16:41:19.815Z,81.80
2022-12-12T16:43:49.769Z,82.04
2022-12-12T16:46:22.167Z,81.79
2022-12-12T16:48:52.757Z,81.04
2022-12-12T16:51:30.631Z,80.77
2022-12-12T16:54:00.715Z,80.92
2022-12-12T16:56:30.707Z,80.63
2022-12-12T16:59:00.458Z,80.81
2022-12-12T17:01:33.397Z,81.13
2022-12-12T17:04:07.425Z,80.80
2022-12-12T17:06:39.828Z,80.55
2022-12-12T17:09:10.569Z,80.50
2022-12-12T17:11:41.000Z,81.02
2022-12-12T17:14:18.698Z,81.49
2022-12-12T17:16:48.597Z,81.79
2022-12-12T17:19:18.786Z,82.02
2022-12-12T17:21:51.306Z,81.68
2022-12-12T17:24:21.137Z,81.58
2022-12-12T17:26:51.275Z,81.38
2022-12-12T17:29:21.149Z,80.90
2022-12-12T17:31:52.321Z,80.58
2022-12-12T17:34:22.229Z,80.70
2022-12-12T17:36:54.622Z,81.22
2022-12-12T17:39:24.743Z,81.33
2022-12-12T17:41:55.883Z,81.29
2022-12-12T17:44:26.077Z,81.13
2022-12-12T17:46:55.886Z,81.12
2022-12-12T17:49:25.726Z,81.16
2022-12-12T17:51:59.163Z,80.75
2022-12-12T17:54:28.884Z,80.58
2022-12-12T17:56:59.661Z,80.85
2022-12-12T17:59:29.494Z,80.95
2022-12-12T18:01:59.305Z,81.62
2022-12-12T18:04:30.162Z,80.84
2022-12-12T18:07:02.526Z,80.34
2022-12-12T18:09:35.585Z,80.31
2022-12-12T18:12:05.517Z,80.42
2022-12-12T18:14:35.369Z,80.52
2022-12-12T18:17:06.592Z,80.07
2022-12-12T18:19:36.347Z,81.00
2022-12-12T18:22:10.740Z,80.52
2022-12-12T18:24:40.904Z,80.72
2022-12-12T18:27:10.728Z,80.76
2022-12-12T18:29:40.987Z,80.60
2022-12-12T18:32:10.764Z,80.47
2022-12-12T18:34:42.639Z,80.25
2022-12-12T18:37:16.470Z,79.84
2022-12-12T18:39:46.328Z,79.82
2022-12-12T18:42:16.193Z,79.78
2022-12-12T18:44:46.985Z,79.94
2022-12-12T18:47:16.805Z,80.03
2022-12-12T18:49:46.594Z,80.07
2022-12-12T18:52:18.982Z,79.79
2022-12-12T18:54:48.818Z,80.03
2022-12-12T18:57:18.597Z,79.79
2022-12-12T18:59:48.408Z,79.68
2022-12-12T19:02:19.502Z,79.87
2022-12-12T19:04:50.288Z,79.87
2022-12-12T19:07:23.621Z,79.87
2022-12-12T19:09:53.458Z,79.82
2022-12-12T19:12:23.174Z,79.83
2022-12-12T19:17:46.396Z,79.97
2022-12-12T19:20:16.587Z,79.36
2022-12-12T19:22:54.151Z,79.27
2022-12-12T19:25:23.895Z,79.01
2022-12-12T19:27:57.542Z,78.98
2022-12-12T19:30:29.339Z,79.22
2022-12-12T19:32:59.271Z,79.38
2022-12-12T19:35:29.049Z,78.58
2022-12-12T19:38:01.436Z,78.48
2022-12-12T19:40:31.195Z,78.86
2022-12-12T19:43:01.010Z,78.55
2022-12-12T19:45:32.856Z,78.51
2022-12-12T19:48:02.790Z,79.10
2022-12-12T19:50:32.596Z,79.00
2022-12-12T19:53:08.210Z,78.70
2022-12-12T19:55:39.770Z,78.10
2022-12-12T19:58:10.562Z,78.24
2022-12-12T20:00:40.323Z,78.49
2022-12-12T20:03:11.501Z,78.40
2022-12-12T20:05:42.345Z,78.75
2022-12-12T20:08:14.765Z,79.10
2022-12-12T20:10:44.605Z,79.36
2022-12-12T20:13:14.321Z,79.50
2022-12-12T20:15:44.175Z,79.80
2022-12-12T20:18:16.693Z,80.05
2022-12-12T20:20:46.545Z,80.09
2022-12-12T20:23:22.178Z,79.98
2022-12-12T20:25:52.107Z,80.88
2022-12-12T20:28:21.905Z,80.69
2022-12-12T20:30:53.532Z,80.84
2022-12-12T20:33:23.479Z,85.14
2022-12-12T20:35:53.288Z,82.21
2022-12-12T20:38:26.794Z,80.43
2022-12-12T20:40:56.607Z,80.42
2022-12-12T20:43:26.558Z,80.34
2022-12-12T20:45:56.453Z,79.96
2022-12-12T20:48:26.235Z,80.46
2022-12-12T20:50:59.960Z,80.27
2022-12-12T20:53:36.371Z,80.54
2022-12-12T20:56:11.029Z,80.39
2022-12-12T20:58:41.819Z,80.29
2022-12-12T21:01:14.083Z,79.80
2022-12-12T21:03:44.501Z,78.97
2022-12-12T21:06:16.590Z,79.36
2022-12-12T21:08:50.603Z,79.74
2022-12-12T21:11:22.509Z,80.19
2022-12-12T21:13:53.299Z,79.84
2022-12-12T21:16:29.911Z,79.03
2022-12-12T21:19:02.108Z,78.93
2022-12-12T21:21:33.173Z,78.31
2022-12-12T21:24:05.924Z,78.10
2022-12-12T21:26:37.409Z,77.24
2022-12-12T21:29:07.715Z,77.58
2022-12-12T21:31:42.326Z,77.40
2022-12-12T21:34:17.637Z,77.52
2022-12-12T21:36:47.488Z,77.43
2022-12-12T21:39:19.954Z,77.59
2022-12-12T21:41:51.271Z,77.80
2022-12-12T21:44:21.734Z,77.69
2022-12-12T21:46:51.698Z,78.23
2022-12-12T21:49:32.014Z,78.41
2022-12-12T21:52:03.432Z,78.76
2022-12-12T21:54:35.936Z,78.08
2022-12-12T21:57:07.764Z,78.47
2022-12-12T21:59:38.851Z,78.34
2022-12-12T22:02:10.676Z,78.49
2022-12-12T22:04:40.521Z,78.47
2022-12-12T22:07:11.926Z,78.26
2022-12-12T22:09:45.058Z,78.39
2022-12-12T22:12:27.602Z,79.12
2022-12-12T22:14:57.401Z,79.04
2022-12-12T22:17:27.244Z,79.54
2022-12-12T22:19:57.488Z,79.47
2022-12-12T22:22:29.023Z,79.79
2022-12-12T22:25:01.403Z,79.57
2022-12-12T22:27:31.204Z,80.25
2022-12-12T22:30:02.088Z,80.38
2022-12-12T22:32:31.992Z,80.36
2022-12-12T22:35:02.797Z,79.72
2022-12-12T22:37:32.661Z,78.61
2022-12-12T22:40:05.090Z,78.51
2022-12-12T22:42:34.869Z,78.82
2022-12-12T22:45:04.759Z,78.65
2022-12-12T22:47:34.612Z,78.54
2022-12-12T22:50:04.515Z,78.33
2022-12-12T22:52:34.376Z,78.71
2022-12-12T22:55:07.543Z,74.94
2022-12-12T22:57:37.407Z,74.44
2022-12-12T23:00:10.533Z,75.67
2022-12-12T23:02:40.363Z,76.13
2022-12-12T23:05:12.812Z,76.31
2022-12-12T23:07:42.996Z,76.75
2022-12-12T23:10:15.435Z,76.45
2022-12-12T23:12:45.209Z,76.55
2022-12-12T23:15:15.211Z,76.75
2022-12-12T23:17:45.168Z,76.60
2022-12-12T23:20:14.969Z,77.18
2022-12-12T23:22:46.495Z,77.43
2022-12-12T23:25:19.150Z,77.51
2022-12-12T23:27:49.981Z,77.92
2022-12-12T23:30:19.927Z,78.24
2022-12-12T23:32:49.749Z,78.63
2022-12-12T23:35:19.713Z,79.06
2022-12-12T23:37:49.558Z,78.76
2022-12-12T23:40:22.004Z,78.42
2022-12-12T23:42:52.842Z,78.43
2022-12-12T23:45:22.674Z,78.47
2022-12-12T23:47:52.437Z,78.57
2022-12-12T23:50:22.378Z,78.86
2022-12-12T23:52:52.204Z,79.32
2022-12-12T23:55:24.585Z,79.66
2022-12-12T23:57:54.502Z,79.74
